Time;durP1;ratioP1;P1;durP2;ratioP2;P2;SDS_P1;SDS_P2;PMS_P1;PMS_P2;Temp;Humidity;BMP_temperature;BMP_pressure;BME280_temperature;BME280_humidity;BME280_pressure;Samples;Min_cycle;Max_cycle;Signal;HPM_P1;HPM_P2
2021/04/14 00:02:10;;;;;;;10.15;9.15;;;;;;;;;;5094033;28;20036;-73
2021/04/14 00:04:36;;;;;;;11.27;9.98;;;;;;;;;;5094134;28;20048;-72
2021/04/14 00:07:02;;;;;;;12.05;9.75;;;;;;;;;;5075371;28;20054;-73
2021/04/14 00:09:29;;;;;;;10.20;9.07;;;;;;;;;;5090547;28;20024;-70
2021/04/14 00:11:56;;;;;;;11.25;9.18;;;;;;;;;;5093915;28;20031;-69
2021/04/14 00:14:22;;;;;;;11.18;9.98;;;;;;;;;;5093330;28;20028;-69
2021/04/14 00:16:48;;;;;;;11.02;9.60;;;;;;;;;;5085131;28;20434;-71
2021/04/14 00:19:14;;;;;;;10.65;9.55;;;;;;;;;;5093481;28;20028;-71
2021/04/14 00:21:42;;;;;;;10.43;9.25;;;;;;;;;;5097130;28;20077;-68
2021/04/14 00:24:11;;;;;;;12.02;10.63;;;;;;;;;;5092691;28;20056;-71
2021/04/14 00:26:37;;;;;;;11.05;9.93;;;;;;;;;;5089934;28;20047;-73
2021/04/14 00:29:03;;;;;;;11.77;10.13;;;;;;;;;;5093580;28;20060;-70
2021/04/14 00:31:35;;;;;;;10.65;9.55;;;;;;;;;;5094530;28;20404;-69
2021/04/14 00:34:12;;;;;;;11.13;10.02;;;;;;;;;;5094087;28;20031;-70
2021/04/14 00:36:39;;;;;;;11.52;10.32;;;;;;;;;;5081858;28;20032;-70
2021/04/14 00:39:06;;;;;;;11.48;10.20;;;;;;;;;;5086158;28;20017;-73
2021/04/14 00:41:32;;;;;;;12.40;11.10;;;;;;;;;;5086262;28;20023;-69
2021/04/14 00:43:58;;;;;;;12.40;10.70;;;;;;;;;;5096798;28;20024;-68
2021/04/14 00:46:24;;;;;;;11.75;10.20;;;;;;;;;;5085153;28;20028;-72
2021/04/14 00:48:51;;;;;;;12.30;10.68;;;;;;;;;;5086780;28;20063;-68
2021/04/14 00:51:19;;;;;;;13.07;10.90;;;;;;;;;;5092836;28;20091;-70
2021/04/14 00:53:45;;;;;;;13.25;10.68;;;;;;;;;;5094043;28;20070;-73
2021/04/14 00:56:12;;;;;;;12.93;10.90;;;;;;;;;;5092134;28;20020;-73
2021/04/14 00:58:38;;;;;;;13.20;11.10;;;;;;;;;;5093330;28;20024;-73
2021/04/14 01:01:04;;;;;;;12.38;10.60;;;;;;;;;;5092759;28;20027;-71
2021/04/14 01:03:33;;;;;;;13.38;11.07;;;;;;;;;;5094247;28;20028;-73
2021/04/14 01:06:00;;;;;;;11.70;10.40;;;;;;;;;;5091822;28;20032;-74
2021/04/14 01:08:26;;;;;;;11.23;10.02;;;;;;;;;;5093318;28;20031;-74
2021/04/14 01:10:53;;;;;;;12.23;10.93;;;;;;;;;;5093047;28;20036;-70
2021/04/14 01:13:19;;;;;;;12.38;9.82;;;;;;;;;;5098712;28;20032;-77
2021/04/14 01:15:46;;;;;;;12.52;11.02;;;;;;;;;;5095987;28;20032;-73
2021/04/14 01:18:16;;;;;;;12.77;10.52;;;;;;;;;;5095543;28;20027;-74
2021/04/14 01:20:43;;;;;;;11.50;10.30;;;;;;;;;;5093482;28;20492;-70
2021/04/14 01:23:09;;;;;;;12.07;10.50;;;;;;;;;;5093540;28;20123;-74
2021/04/14 01:25:37;;;;;;;10.82;9.73;;;;;;;;;;5090079;28;20051;-71
2021/04/14 01:28:08;;;;;;;10.90;9.35;;;;;;;;;;5092615;28;20480;-72
2021/04/14 01:30:34;;;;;;;14.02;10.75;;;;;;;;;;5093532;28;20020;-73
2021/04/14 01:33:00;;;;;;;10.82;9.68;;;;;;;;;;5093041;28;20024;-71
2021/04/14 01:35:27;;;;;;;11.35;10.07;;;;;;;;;;5086470;28;20112;-70
2021/04/14 01:37:54;;;;;;;11.38;10.18;;;;;;;;;;5072540;28;20025;-80
2021/04/14 01:40:21;;;;;;;11.30;9.70;;;;;;;;;;5089288;28;20028;-68
2021/04/14 01:42:47;;;;;;;11.85;10.25;;;;;;;;;;5093074;28;20024;-69
2021/04/14 01:45:14;;;;;;;11.40;10.15;;;;;;;;;;5094244;28;20035;-73
2021/04/14 01:47:40;;;;;;;10.73;9.25;;;;;;;;;;5078814;28;20084;-69
2021/04/14 01:50:07;;;;;;;11.80;9.73;;;;;;;;;;5093210;28;20016;-73
2021/04/14 01:52:34;;;;;;;11.40;10.20;;;;;;;;;;5093153;28;20481;-71
2021/04/14 01:55:00;;;;;;;10.80;9.70;;;;;;;;;;5092028;28;20044;-73
2021/04/14 01:57:26;;;;;;;10.95;9.75;;;;;;;;;;5110938;28;20461;-73
2021/04/14 01:59:53;;;;;;;10.68;9.20;;;;;;;;;;5095985;28;20077;-69
2021/04/14 02:02:19;;;;;;;11.13;9.70;;;;;;;;;;5087242;28;20044;-71
2021/04/14 02:04:45;;;;;;;9.60;8.60;;;;;;;;;;5095216;28;20024;-74
2021/04/14 02:07:11;;;;;;;9.93;8.70;;;;;;;;;;5087057;28;20130;-72
2021/04/14 02:09:38;;;;;;;10.60;8.77;;;;;;;;;;5096442;28;20099;-71
2021/04/14 02:12:06;;;;;;;10.30;8.52;;;;;;;;;;5097339;28;20155;-69
2021/04/14 02:14:33;;;;;;;10.77;9.63;;;;;;;;;;5080434;28;20019;-72
2021/04/14 02:16:59;;;;;;;12.18;9.25;;;;;;;;;;5080530;28;20039;-70
2021/04/14 02:19:25;;;;;;;11.35;9.60;;;;;;;;;;5107210;28;20062;-70
2021/04/14 02:21:51;;;;;;;9.70;8.60;;;;;;;;;;5089605;28;20564;-73
2021/04/14 02:24:18;;;;;;;10.60;8.43;;;;;;;;;;5086699;28;20060;-69
2021/04/14 02:26:44;;;;;;;9.50;8.18;;;;;;;;;;5095000;28;20512;-73
2021/04/14 02:29:10;;;;;;;10.52;9.43;;;;;;;;;;5096383;28;20024;-70
2021/04/14 02:31:37;;;;;;;11.02;8.73;;;;;;;;;;5094133;28;20061;-69
2021/04/14 02:34:05;;;;;;;9.13;8.05;;;;;;;;;;5096593;28;20099;-69
2021/04/14 02:36:31;;;;;;;10.90;9.32;;;;;;;;;;5095105;28;20030;-70
2021/04/14 02:38:59;;;;;;;9.88;8.88;;;;;;;;;;5097600;28;20060;-69
2021/04/14 02:41:25;;;;;;;11.55;9.40;;;;;;;;;;5090357;28;20378;-73
2021/04/14 02:43:52;;;;;;;9.50;8.50;;;;;;;;;;5096911;28;20097;-74
2021/04/14 02:46:20;;;;;;;10.05;8.75;;;;;;;;;;5090378;28;20036;-73
2021/04/14 02:48:46;;;;;;;9.70;8.70;;;;;;;;;;5090562;28;20020;-70
2021/04/14 02:51:12;;;;;;;9.93;8.65;;;;;;;;;;5103758;28;20027;-68
2021/04/14 02:53:38;;;;;;;9.48;8.45;;;;;;;;;;5100721;28;20545;-69
2021/04/14 02:56:05;;;;;;;9.45;8.45;;;;;;;;;;5094863;28;20500;-71
2021/04/14 02:58:31;;;;;;;8.82;7.57;;;;;;;;;;5094308;28;20025;-72
2021/04/14 03:00:57;;;;;;;8.00;7.20;;;;;;;;;;5096141;28;20028;-68
2021/04/14 03:03:26;;;;;;;8.85;7.90;;;;;;;;;;5094351;28;20113;-72
2021/04/14 03:05:52;;;;;;;8.75;7.68;;;;;;;;;;5094406;28;20028;-71
2021/04/14 03:08:18;;;;;;;8.88;7.97;;;;;;;;;;5095028;28;20043;-73
2021/04/14 03:10:44;;;;;;;9.30;8.27;;;;;;;;;;5095717;28;20034;-72
2021/04/14 03:13:11;;;;;;;8.05;7.25;;;;;;;;;;5108167;28;20081;-72
2021/04/14 03:15:39;;;;;;;8.43;7.53;;;77.50;2227.20;;;;;;5095447;28;20030;-74
2021/04/14 03:18:13;;;;;;;8.52;7.63;;;77.30;2227.20;;;;;;5089988;28;20031;-73
2021/04/14 03:20:39;;;;;;;9.25;8.25;;;77.30;2227.20;;;;;;5088456;28;20132;-68
2021/04/14 03:23:05;;;;;;;8.40;7.60;;;77.30;2227.20;;;;;;5093656;28;20111;-73
2021/04/14 03:25:32;;;;;;;9.95;8.52;;;77.30;2227.20;;;;;;5094031;28;20028;-73
2021/04/14 03:27:59;;;;;;;10.80;8.93;;;77.30;2227.20;;;;;;5093330;28;20075;-70
2021/04/14 03:30:26;;;;;;;9.35;8.38;;;77.30;2227.20;;;;;;5094235;28;20575;-74
2021/04/14 03:32:52;;;;;;;9.77;8.75;;;77.30;2227.20;;;;;;5094513;28;20032;-71
2021/04/14 03:35:22;;;;;;;10.40;8.73;;;77.30;2227.20;;;;;;5094769;28;20027;-74
2021/04/14 03:37:50;;;;;;;10.77;9.50;;;77.30;2227.20;;;;;;5094404;28;20032;-68
2021/04/14 03:40:16;;;;;;;10.63;9.50;;;77.40;2227.20;;;;;;5095158;28;20020;-70
2021/04/14 03:42:42;;;;;;;11.13;9.80;;;77.30;2227.20;;;;;;5097504;28;20021;-73
2021/04/14 03:45:13;;;;;;;11.13;9.95;;;77.20;2227.20;;;;;;5094888;28;20069;-69
2021/04/14 03:47:39;;;;;;;12.82;9.82;;;77.20;2227.20;;;;;;5089274;28;20032;-70
2021/04/14 03:50:07;;;;;;;12.13;10.65;;;77.30;2227.20;;;;;;5083570;28;21506;-70
2021/04/14 03:52:33;;;;;;;11.98;10.15;;;77.20;2227.20;;;;;;5081874;28;20032;-68
2021/04/14 03:54:58;;;;;;;14.15;10.57;;;77.20;2227.20;;;;;;5087360;28;20516;-70
2021/04/14 03:57:24;;;;;;;11.95;10.65;;;77.20;2227.20;;;;;;5093945;28;20049;-69
2021/04/14 03:59:50;;;;;;;12.43;10.90;;;77.30;2227.20;;;;;;5092493;28;20024;-69
2021/04/14 04:02:16;;;;;;;12.52;10.57;;;77.20;2227.20;;;;;;5096845;28;20043;-70
2021/04/14 04:04:41;;;;;;;12.82;11.07;;;77.20;2227.20;;;;;;5091905;28;20024;-70
2021/04/14 04:07:07;;;;;;;11.70;10.45;;;77.20;2227.20;;;;;;5091349;28;20540;-70
2021/04/14 04:09:33;;;;;;;12.68;10.93;;;77.20;2227.20;;;;;;5083910;28;20016;-70
2021/04/14 04:11:59;;;;;;;12.65;10.48;;;77.10;2227.20;;;;;;5087863;28;20036;-70
2021/04/14 04:14:28;;;;;;;12.93;10.80;;;77.10;2227.20;;;;;;5093331;28;20020;-70
2021/04/14 04:16:54;;;;;;;11.18;9.52;;;77.10;2227.20;;;;;;5091720;28;20027;-70
2021/04/14 04:19:19;;;;;;;11.23;10.02;;;77.10;2227.20;;;;;;5103127;28;20023;-69
2021/04/14 04:21:45;;;;;;;12.25;9.65;;;77.10;2227.20;;;;;;5084489;28;20032;-72
2021/04/14 04:24:11;;;;;;;12.48;10.43;;;77.70;2227.20;;;;;;5088531;28;20035;-70
2021/04/14 04:26:36;;;;;;;11.25;10.05;;;77.20;2227.20;;;;;;5088196;28;20430;-71
2021/04/14 04:29:02;;;;;;;11.80;9.82;;;77.20;2227.20;;;;;;5088923;28;20028;-70
2021/04/14 04:31:28;;;;;;;11.30;9.40;;;77.20;2227.20;;;;;;5089990;28;20509;-70
2021/04/14 04:33:53;;;;;;;11.13;9.95;;;77.20;2227.20;;;;;;5094039;28;20016;-67
2021/04/14 04:36:19;;;;;;;10.48;9.32;;;77.20;2227.20;;;;;;5096401;28;20098;-69
2021/04/14 04:38:45;;;;;;;10.00;8.95;;;77.20;2227.20;;;;;;5078192;28;20062;-73
2021/04/14 04:41:10;;;;;;;10.45;9.27;;;77.20;2227.20;;;;;;5093019;28;20035;-71
2021/04/14 04:43:36;;;;;;;12.80;9.23;;;77.20;2227.20;;;;;;5089584;28;20028;-71
2021/04/14 04:46:02;;;;;;;10.57;9.48;;;77.20;2227.20;;;;;;5085773;28;20031;-70
2021/04/14 04:48:28;;;;;;;10.23;9.13;;;77.30;2227.20;;;;;;5086218;28;20486;-70
2021/04/14 04:50:53;;;;;;;9.68;8.52;;;77.30;2227.20;;;;;;5079788;28;20039;-68
2021/04/14 04:53:22;;;;;;;9.68;8.68;;;77.30;2227.20;;;;;;5075625;28;20043;-71
2021/04/14 04:55:48;;;;;;;11.65;9.40;;;77.40;2227.20;;;;;;5083160;28;20397;-75
2021/04/14 04:58:16;;;;;;;10.52;9.43;;;77.40;2227.20;;;;;;5082450;28;20040;-77
2021/04/14 05:00:43;;;;;;;11.02;9.75;;;77.50;2227.20;;;;;;5076259;28;20073;-70
2021/04/14 05:03:11;;;;;;;10.85;9.43;;;77.40;2227.20;;;;;;5086500;28;20050;-74
2021/04/14 05:05:38;;;;;;;10.80;9.55;;;77.30;2227.20;;;;;;5088764;28;20024;-68
2021/04/14 05:08:09;;;;;;;11.80;9.48;;;77.40;2227.20;;;;;;5082814;28;20119;-75
2021/04/14 05:10:36;;;;;;;11.43;9.98;;;77.30;2227.20;;;;;;5087724;28;20012;-68
2021/04/14 05:13:02;;;;;;;13.30;9.25;;;77.40;2227.20;;;;;;5085460;28;20028;-67
2021/04/14 05:15:30;;;;;;;9.00;8.10;;;77.50;2227.20;;;;;;5092546;28;20031;-69
2021/04/14 05:17:56;;;;;;;10.60;8.30;;;77.50;2227.20;;;;;;5092003;28;20024;-67
2021/04/14 05:20:22;;;;;;;10.00;7.57;;;77.50;2227.20;;;;;;5092073;28;20028;-68
2021/04/14 05:22:49;;;;;;;13.48;7.75;;;77.60;2227.20;;;;;;5088551;28;20051;-68
2021/04/14 05:25:24;;;;;;;9.75;7.20;;;77.60;2227.20;;;;;;5084083;28;20473;-69
2021/04/14 05:27:52;;;;;;;9.35;8.07;;;77.60;2227.20;;;;;;5080683;28;20556;-66
2021/04/14 05:30:19;;;;;;;8.93;7.85;;;77.60;2227.20;;;;;;5090486;28;20034;-68
2021/04/14 05:32:45;;;;;;;9.07;7.22;;;77.60;2227.20;;;;;;5094235;28;20110;-69
2021/04/14 05:35:13;;;;;;;10.02;7.80;;;77.60;2227.20;;;;;;5087318;28;20474;-69
2021/04/14 05:37:38;;;;;;;8.73;7.70;;;77.70;2227.20;;;;;;5091234;28;20027;-67
2021/04/14 05:40:05;;;;;;;9.85;8.20;;;77.70;2227.20;;;;;;5087554;28;20474;-67
2021/04/14 05:42:38;;;;;;;10.70;7.68;;;77.70;2227.20;;;;;;5088972;28;20066;-68
2021/04/14 05:45:05;;;;;;;10.27;9.18;;;77.70;2227.20;;;;;;5088388;28;20032;-67
2021/04/14 05:47:31;;;;;;;10.40;9.20;;;77.70;2227.20;;;;;;5084717;28;20029;-67
2021/04/14 05:49:56;;;;;;;17.95;15.73;;;77.60;2227.20;;;;;;5091820;28;20035;-67
2021/04/14 05:52:22;;;;;;;11.43;10.18;;;77.60;2227.20;;;;;;5088996;28;20077;-70
2021/04/14 05:54:48;;;;;;;12.15;10.95;;;77.50;2227.20;;;;;;5080111;28;20051;-68
2021/04/14 05:57:13;;;;;;;9.32;8.32;;;77.50;2227.20;;;;;;5082732;28;20378;-67
2021/04/14 05:59:39;;;;;;;28.92;14.13;;;77.50;2227.20;;;;;;5084398;28;20028;-69
2021/04/14 06:02:05;;;;;;;35.75;12.10;;;77.50;2227.20;;;;;;5082700;28;20113;-67
2021/04/14 06:04:30;;;;;;;17.63;12.18;;;77.60;2227.20;;;;;;5086226;28;20492;-69
2021/04/14 06:06:56;;;;;;;8.55;7.65;;;77.60;2227.20;;;;;;5082040;28;20082;-70
2021/04/14 06:09:22;;;;;;;10.65;8.75;;;77.60;2227.20;;;;;;5089977;28;20024;-72
2021/04/14 06:11:47;;;;;;;14.95;10.25;;;77.60;2227.20;;;;;;5090459;28;20058;-68
2021/04/14 06:14:13;;;;;;;13.68;9.90;;;77.60;2227.20;;;;;;5092649;28;20036;-68
2021/04/14 06:16:39;;;;;;;13.10;10.23;;;77.60;2227.20;;;;;;5088166;28;20059;-69
2021/04/14 06:19:05;;;;;;;11.98;9.52;;;77.50;2227.20;;;;;;5087671;28;20052;-69
2021/04/14 06:21:31;;;;;;;11.57;9.63;;;77.50;2227.20;;;;;;5085679;28;20533;-66
2021/04/14 06:23:58;;;;;;;11.60;10.13;;;77.50;2227.20;;;;;;5095299;28;20031;-68
2021/04/14 06:28:52;;;;;;;11.50;9.77;;;77.70;2227.20;;;;;;5088798;28;20393;-67
2021/04/14 06:31:18;;;;;;;9.93;8.70;;;77.60;2227.20;;;;;;5087750;28;20012;-69
2021/04/14 06:33:48;;;;;;;11.38;9.38;;;77.60;2227.20;;;;;;5095129;28;20106;-71
2021/04/14 06:36:13;;;;;;;9.98;8.57;;;77.70;2227.20;;;;;;5091753;28;20428;-69
2021/04/14 06:38:43;;;;;;;10.35;8.60;;;77.70;2227.20;;;;;;5082244;28;20111;-65
2021/04/14 06:41:51;;;;;;;9.05;7.55;;;102.40;2227.20;;;;;;5086478;28;20488;-67
2021/04/14 06:44:21;;;;;;;9.38;8.35;;;102.40;2227.20;;;;;;5084983;28;20431;-66
2021/04/14 06:46:50;;;;;;;11.40;9.75;;;102.40;2227.20;;;;;;5089516;28;20032;-69
2021/04/14 06:49:29;;;;;;;13.55;10.48;;;102.40;2227.20;;;;;;5092784;28;20028;-71
2021/04/14 06:52:21;;;;;;;12.05;10.10;;;102.50;2227.20;;;;;;5094978;28;20032;-71
2021/04/14 06:55:11;;;;;;;10.27;8.98;;;102.50;2227.20;;;;;;5080024;28;20044;-65
2021/04/14 06:57:40;;;;;;;11.13;9.48;;;102.50;2227.20;;;;;;5094404;28;20038;-67
2021/04/14 07:00:24;;;;;;;11.10;9.90;;;102.40;2227.20;;;;;;5092578;28;20028;-69
2021/04/14 07:02:56;;;;;;;10.05;8.73;;;102.40;2227.20;;;;;;5094466;28;20027;-70
2021/04/14 07:05:26;;;;;;;9.45;8.38;;;102.40;2227.20;;;;;;5093121;28;20020;-70
2021/04/14 07:07:55;;;;;;;9.55;8.00;;;102.40;2227.20;;;;;;5094728;28;20036;-71
2021/04/14 07:10:30;;;;;;;9.52;8.52;;;102.50;2227.20;;;;;;5093126;28;20043;-71
2021/04/14 07:13:02;;;;;;;10.20;8.73;;;102.40;2227.20;;;;;;5090371;28;20085;-69
2021/04/14 07:15:29;;;;;;;10.85;9.57;;;102.60;2227.20;;;;;;5093923;28;20017;-66
2021/04/14 07:18:10;;;;;;;10.07;8.35;;;102.60;2227.20;;;;;;5091293;28;20069;-68
2021/04/14 07:20:46;;;;;;;10.48;8.88;;;102.60;2227.20;;;;;;5093154;28;20020;-72
2021/04/14 07:23:38;;;;;;;11.70;8.80;;;102.60;2227.20;;;;;;5089333;28;20016;-72
2021/04/14 07:26:19;;;;;;;9.57;8.55;;;102.60;2227.20;;;;;;5092226;28;20078;-68
2021/04/14 07:29:09;;;;;;;10.10;9.05;;;102.70;2227.20;;;;;;5091129;28;20062;-69
2021/04/14 07:31:43;;;;;;;10.55;9.45;;;102.70;2227.20;;;;;;5091063;28;20032;-68
2021/04/14 07:34:29;;;;;;;8.55;7.65;;;102.80;2227.20;;;;;;5086150;28;20095;-72
2021/04/14 07:37:08;;;;;;;9.30;7.53;;;102.70;2227.20;;;;;;5076567;28;20078;-72
2021/04/14 07:40:08;;;;;;;8.75;7.70;;;102.70;2227.20;;;;;;5089140;28;20385;-69
2021/04/14 07:42:38;;;;;;;10.00;8.05;;;102.70;2227.20;;;;;;5074765;28;20090;-72
2021/04/14 07:45:19;;;;;;;9.65;8.15;;;102.70;2227.20;;;;;;5084426;28;20447;-70
2021/04/14 07:47:50;;;;;;;7.47;6.78;;;102.80;2227.20;;;;;;5091137;28;20085;-71
2021/04/14 07:50:21;;;;;;;8.40;7.22;;;102.80;2227.20;;;;;;5093832;28;20065;-70
2021/04/14 07:52:47;;;;;;;11.18;8.05;;;102.80;2227.20;;;;;;5082527;28;20045;-67
2021/04/14 07:55:24;;;;;;;8.75;7.85;;;102.80;2227.20;;;;;;5082964;28;20045;-72
2021/04/14 07:57:50;;;;;;;8.88;7.93;;;102.80;2227.20;;;;;;5090129;28;20490;-68
2021/04/14 08:00:23;;;;;;;9.73;8.73;;;102.80;2227.20;;;;;;5090646;28;20027;-68
2021/04/14 08:02:50;;;;;;;10.77;9.32;;;102.80;2227.20;;;;;;5092457;28;20041;-67
2021/04/14 08:05:33;;;;;;;10.63;8.95;;;102.90;2227.20;;;;;;5087540;28;20052;-68
2021/04/14 08:07:59;;;;;;;12.27;9.98;;;103.10;2227.20;;;;;;5087217;28;20472;-70
2021/04/14 08:10:31;;;;;;;11.68;9.05;;;103.00;2227.20;;;;;;5083194;28;20107;-73
2021/04/14 08:13:06;;;;;;;10.90;9.80;;;102.90;2227.20;;;;;;5090985;28;20026;-66
2021/04/14 08:15:41;;;;;;;10.77;9.45;;;102.80;2227.20;;;;;;5080591;28;20077;-68
2021/04/14 08:18:13;;;;;;;13.40;10.48;;;102.90;2227.20;;;;;;5084094;28;20021;-68
2021/04/14 08:20:42;;;;;;;11.02;9.48;;;102.90;2227.20;;;;;;5085953;28;20458;-69
2021/04/14 08:23:23;;;;;;;9.88;8.70;;;103.00;2227.20;;;;;;5084450;28;20058;-70
2021/04/14 08:25:56;;;;;;;11.35;9.18;;;102.90;2227.20;;;;;;5089226;28;20028;-71
2021/04/14 08:28:35;;;;;;;11.02;9.30;;;102.90;2227.20;;;;;;5094304;28;20060;-67
2021/04/14 08:31:07;;;;;;;10.50;9.35;;;102.90;2227.20;;;;;;5091532;28;20384;-69
2021/04/14 08:33:33;;;;;;;11.48;10.27;;;102.90;2227.20;;;;;;5088505;28;20024;-62
2021/04/14 08:36:13;;;;;;;10.98;9.40;;;103.10;2227.20;;;;;;5088894;28;20039;-68
2021/04/14 08:38:40;;;;;;;10.23;8.80;;;103.30;2227.20;;;;;;5087001;28;20020;-67
2021/04/14 08:41:05;;;;;;;11.10;9.48;;;103.30;2227.20;;;;;;5082294;28;20055;-68
2021/04/14 08:43:33;;;;;;;10.52;9.00;;;103.30;2227.20;;;;;;5091281;28;20024;-71
2021/04/14 08:46:12;;;;;;;9.60;8.60;;;103.30;2227.20;;;;;;5090158;28;20028;-69
2021/04/14 08:48:39;;;;;;;9.38;8.15;;;103.30;2227.20;;;;;;5091239;28;20063;-70
2021/04/14 08:51:05;;;;;;;10.05;8.50;;;103.20;2227.20;;;;;;5077246;28;20362;-67
2021/04/14 08:53:38;;;;;;;10.55;8.77;;;103.10;2227.20;;;;;;5084329;28;20025;-68
2021/04/14 08:56:04;;;;;;;11.07;9.73;;;103.20;2227.20;;;;;;5087283;28;20016;-69
2021/04/14 08:58:31;;;;;;;27.08;17.98;;;103.30;2227.20;;;;;;5084664;28;20028;-70
2021/04/14 09:00:58;;;;;;;13.32;10.25;;;128.00;2252.80;;;;;;5085165;28;20028;-69
2021/04/14 09:03:28;;;;;;;11.32;9.50;;;128.10;2252.80;;;;;;5089857;28;20548;-70
2021/04/14 09:05:55;;;;;;;11.27;9.82;;;128.20;2252.80;;;;;;5092094;28;20036;-68
2021/04/14 09:08:25;;;;;;;8.90;7.90;;;128.30;2252.80;;;;;;5093771;28;20032;-69
2021/04/14 09:13:38;;;;;;;10.20;9.20;;;128.00;2252.80;;;;;;5089781;28;20358;-68
2021/04/14 09:16:07;;;;;;;8.80;7.90;;;128.10;2252.80;;;;;;5090838;28;20035;-67
2021/04/14 09:18:37;;;;;;;10.20;8.63;;;128.40;2252.80;;;;;;5083825;28;20538;-70
2021/04/14 09:21:25;;;;;;;9.50;8.50;;;128.60;2252.80;;;;;;5080657;28;20028;-68
2021/04/14 09:24:06;;;;;;;8.95;7.90;;;128.90;2252.80;;;;;;5082568;28;20478;-71
2021/04/14 09:26:40;;;;;;;9.88;8.85;;;153.70;2252.80;;;;;;5090818;28;20027;-68
2021/04/14 09:29:26;;;;;;;;;;;154.00;2252.80;;;;;;5085381;28;20072;-70
2021/04/14 09:31:58;;;;;;;7.60;6.80;;;154.00;2252.80;;;;;;5091943;28;19952;-68
2021/04/14 09:34:36;;;;;;;8.95;6.50;;;153.90;2252.80;;;;;;5085178;28;20017;-67
2021/04/14 09:37:13;;;;;;;9.35;6.75;;;153.80;2252.80;;;;;;5081132;28;20031;-68
2021/04/14 09:39:46;;;;;;;9.48;7.22;;;153.80;2252.80;;;;;;5078205;28;20045;-68
2021/04/14 09:42:27;;;;;;;8.55;7.65;;;153.80;2252.80;;;;;;5086427;28;20066;-68
2021/04/14 09:44:58;;;;;;;10.95;7.38;;;153.70;2252.80;;;;;;5081043;28;20032;-68
2021/04/14 09:47:23;;;;;;;7.72;6.68;;;153.70;2252.80;;;;;;5087847;28;20032;-69
2021/04/14 09:49:50;;;;;;;8.70;7.80;;;153.60;2252.80;;;;;;5089933;28;20035;-70
2021/04/14 09:52:44;;;;;;;7.38;6.57;;;128.80;2252.80;;;;;;5086209;28;20029;-69
2021/04/14 09:55:31;;;;;;;8.88;7.40;;;128.80;2252.80;;;;;;5082202;28;20411;-71
2021/04/14 09:58:03;;;;;;;7.78;6.65;;;128.90;2252.80;;;;;;5082192;28;20031;-66
2021/04/14 10:00:32;;;;;;;8.13;7.32;;;128.60;2252.80;;;;;;5090538;28;20048;-69
2021/04/14 10:03:11;;;;;;;7.38;6.43;;;128.80;2252.80;;;;;;5085365;28;20024;-68
2021/04/14 10:05:38;;;;;;;8.68;7.10;;;128.70;2252.80;;;;;;5090327;28;20377;-67
2021/04/14 10:08:05;;;;;;;7.43;6.63;;;128.60;2252.80;;;;;;5087178;28;20078;-70
2021/04/14 10:10:44;;;;;;;9.20;7.50;;;128.90;2252.80;;;;;;5076923;28;20035;-68
2021/04/14 10:13:12;;;;;;;8.73;7.43;;;153.80;2252.80;;;;;;5078238;28;20111;-69
2021/04/14 10:15:41;;;;;;;8.32;7.43;;;153.80;2252.80;;;;;;5077593;28;20442;-71
2021/04/14 10:18:20;;;;;;;7.72;6.82;;;153.60;2252.80;;;;;;5077742;28;20024;-69
2021/04/14 10:20:47;;;;;;;8.38;7.40;;;128.90;2252.80;;;;;;5085200;28;20029;-68
2021/04/14 10:23:16;;;;;;;8.95;6.80;;;128.90;2252.80;;;;;;5079214;28;20375;-69
2021/04/14 10:25:43;;;;;;;9.20;7.57;;;128.80;2252.80;;;;;;5079599;28;20020;-67
2021/04/14 10:28:14;;;;;;;7.80;6.72;;;128.80;2252.80;;;;;;5081214;28;20040;-68
2021/04/14 10:30:44;;;;;;;9.93;7.50;;;128.60;2252.80;;;;;;5083192;28;20032;-68
2021/04/14 10:33:17;;;;;;;8.68;7.38;;;128.60;2252.80;;;;;;5083570;28;20024;-67
2021/04/14 10:35:43;;;;;;;;;;;128.60;2252.80;;;;;;5079032;28;20020;-67
2021/04/14 10:38:09;;;;;;;11.00;8.50;;;128.80;2252.80;;;;;;5081002;28;19908;-66
2021/04/14 10:40:38;;;;;;;9.25;8.13;;;128.80;2252.80;;;;;;5083504;28;20040;-69
2021/04/14 10:43:12;;;;;;;9.98;7.70;;;128.80;2252.80;;;;;;5081192;28;20060;-68
2021/04/14 10:46:01;;;;;;;10.45;8.65;;;153.60;2252.80;;;;;;5085358;28;20074;-70
2021/04/14 10:48:27;;;;;;;7.90;7.05;;;153.70;2252.80;;;;;;5087479;28;20040;-67
2021/04/14 10:51:16;;;;;;;7.60;6.80;;;153.70;2252.80;;;;;;5087050;28;20078;-71
2021/04/14 10:53:43;;;;;;;7.28;5.93;;;153.80;2252.80;;;;;;5085346;28;20101;-64
2021/04/14 10:56:29;;;;;;;9.93;7.40;;;153.80;2252.80;;;;;;5080165;28;20511;-65
2021/04/14 10:58:57;;;;;;;7.22;6.53;;;154.10;2252.80;;;;;;5081202;28;20111;-67
2021/04/14 11:01:39;;;;;;;9.38;7.57;;;154.10;2252.80;;;;;;5087020;28;20028;-65
2021/04/14 11:04:10;;;;;;;12.70;8.82;;;154.20;2252.80;;;;;;5079798;28;20024;-68
2021/04/14 11:06:37;;;;;;;10.00;7.68;;;154.20;2252.80;;;;;;5081238;28;20610;-68
2021/04/14 11:09:06;;;;;;;7.47;6.13;;;154.20;2252.80;;;;;;5087059;28;20032;-69
2021/04/14 11:11:34;;;;;;;6.85;6.15;;;154.20;2252.80;;;;;;5098601;28;20111;-71
2021/04/14 11:14:00;;;;;;;9.02;7.47;;;154.10;2252.80;;;;;;5082015;28;20012;-68
2021/04/14 11:16:27;;;;;;;9.45;8.55;;;153.80;2252.80;;;;;;5082028;28;20506;-71
2021/04/14 11:18:53;;;;;;;10.02;8.98;;;153.60;2252.80;;;;;;5086743;28;20059;-66
2021/04/14 11:21:29;;;;;;;8.63;7.72;;;153.60;2252.80;;;;;;5091489;28;20060;-70
2021/04/14 11:24:21;;;;;;;10.90;8.63;;;128.90;2252.80;;;;;;5086688;28;20047;-72
2021/04/14 11:26:51;;;;;;;10.35;8.68;;;128.80;2252.80;;;;;;5087243;28;20097;-71
2021/04/14 11:29:32;;;;;;;11.45;9.80;;;128.60;2252.80;;;;;;5083564;28;20025;-71
2021/04/14 11:31:59;;;;;;;11.65;10.45;;;128.60;2252.80;;;;;;5082642;28;20028;-71
2021/04/14 11:34:29;;;;;;;18.02;15.18;;;128.80;2252.80;;;;;;5086453;28;20019;-71
2021/04/14 11:37:05;;;;;;;22.70;16.90;;;128.90;2252.80;;;;;;5081400;28;20043;-67
2021/04/14 11:39:55;;;;;;;24.35;17.95;;;153.60;2252.80;;;;;;5083742;28;20020;-69
2021/04/14 11:42:24;;;;;;;22.63;17.13;;;153.90;2252.80;;;;;;5082546;28;20074;-70
2021/04/14 11:44:57;;;;;;;17.65;12.70;;;153.90;2252.80;;;;;;5080987;28;20036;-68
2021/04/14 11:47:27;;;;;;;17.92;12.15;;;153.80;2252.80;;;;;;5090760;28;20488;-72
2021/04/14 11:49:54;;;;;;;13.63;10.68;;;153.70;2252.80;;;;;;5087161;28;20025;-68
2021/04/14 11:52:42;;;;;;;13.38;9.23;;;153.60;2252.80;;;;;;5076120;28;20034;-69
2021/04/14 11:55:14;;;;;;;11.73;9.32;;;128.80;2252.80;;;;;;5081212;28;20040;-72
2021/04/14 11:57:42;;;;;;;11.38;9.05;;;128.90;2252.80;;;;;;5089992;28;20070;-71
2021/04/14 12:00:18;;;;;;;10.88;9.70;;;128.80;2252.80;;;;;;5085139;28;20600;-70
2021/04/14 12:02:46;;;;;;;12.40;11.10;;;128.80;2252.80;;;;;;5082877;28;20367;-70
2021/04/14 12:05:12;;;;;;;15.32;10.98;;;128.90;2252.80;;;;;;5081221;28;20069;-69
2021/04/14 12:07:39;;;;;;;11.10;9.85;;;153.60;2252.80;;;;;;5081808;28;20028;-70
2021/04/14 12:10:06;;;;;;;12.48;9.65;;;128.90;2252.80;;;;;;5084050;28;20024;-69
2021/04/14 12:12:33;;;;;;;12.27;10.45;;;153.60;2252.80;;;;;;5083672;28;20046;-69
2021/04/14 12:14:59;;;;;;;11.40;10.20;;;128.90;2252.80;;;;;;5074259;28;20076;-69
2021/04/14 12:17:25;;;;;;;13.40;10.50;;;128.60;2252.80;;;;;;5077592;28;20332;-72
2021/04/14 12:19:52;;;;;;;12.32;10.52;;;128.60;2252.80;;;;;;5087076;28;20028;-69
2021/04/14 12:22:20;;;;;;;15.18;12.25;;;128.60;2252.80;;;;;;5080432;28;20113;-76
2021/04/14 12:24:46;;;;;;;14.85;12.63;;;128.70;2252.80;;;;;;5086483;28;20040;-68
2021/04/14 12:27:12;;;;;;;15.90;13.43;;;128.70;2252.80;;;;;;5072889;28;20489;-70
2021/04/14 12:29:39;;;;;;;15.73;13.30;;;128.70;2252.80;;;;;;5072272;28;20024;-71
2021/04/14 12:32:06;;;;;;;16.75;14.68;;;128.70;2252.80;;;;;;5081980;28;20025;-64
2021/04/14 12:34:32;;;;;;;22.20;15.80;;;128.90;2252.80;;;;;;5081021;28;20021;-66
2021/04/14 12:36:58;;;;;;;18.52;15.90;;;153.60;2252.80;;;;;;5077908;28;20384;-69
2021/04/14 12:39:25;;;;;;;21.45;17.65;;;153.60;2252.80;;;;;;5077606;28;20032;-69
2021/04/14 12:41:51;;;;;;;16.75;14.82;;;153.70;2252.80;;;;;;5083560;28;20025;-69
2021/04/14 12:44:19;;;;;;;16.02;13.95;;;153.80;2252.80;;;;;;5089502;28;20028;-70
2021/04/14 12:46:47;;;;;;;16.20;14.50;;;154.00;2252.80;;;;;;5077915;28;20133;-72
2021/04/14 12:49:15;;;;;;;16.90;15.10;;;154.00;2252.80;;;;;;5084178;28;20943;-65
2021/04/14 12:52:01;;;;;;;18.15;15.60;;;153.90;2252.80;;;;;;5078181;28;20422;-69
2021/04/14 12:54:30;;;;;;;18.63;16.65;;;153.80;2252.80;;;;;;5076923;28;20078;-70
2021/04/14 12:57:23;;;;;;;18.35;16.40;;;153.70;2252.80;;;;;;5086461;28;20024;-69
2021/04/14 12:59:56;;;;;;;21.63;18.57;;;153.60;2252.80;;;;;;5080082;28;20086;-67
2021/04/14 13:02:31;;;;;;;27.88;22.38;;;153.60;2252.80;;;;;;5091427;28;20264;-67